createdAt,value
2022-09-02T00:02:37.258Z,15.51
2022-09-02T00:05:39.914Z,15.56
2022-09-02T00:08:44.611Z,15.50
2022-09-02T00:11:49.361Z,15.33
2022-09-02T00:14:51.986Z,15.26
2022-09-02T00:17:54.881Z,15.25
2022-09-02T00:21:01.706Z,15.24
2022-09-02T00:24:07.591Z,15.14
2022-09-02T00:27:10.146Z,15.08
2022-09-02T00:30:14.601Z,15.02
2022-09-02T00:33:17.295Z,14.99
2022-09-02T00:36:20.154Z,15.05
2022-09-02T00:39:24.187Z,15.01
2022-09-02T00:42:27.575Z,14.87
2022-09-02T00:45:30.244Z,14.92
2022-09-02T00:48:33.113Z,14.78
2022-09-02T00:51:44.814Z,14.85
2022-09-02T00:54:53.405Z,14.81
2022-09-02T00:58:01.437Z,14.83
2022-09-02T01:01:04.721Z,14.75
2022-09-02T01:04:07.746Z,14.82
2022-09-02T01:07:10.563Z,14.94
2022-09-02T01:10:18.190Z,14.88
2022-09-02T01:13:24.731Z,14.93
2022-09-02T01:16:32.173Z,14.81
2022-09-02T01:19:39.532Z,14.71
2022-09-02T01:22:45.646Z,14.80
2022-09-02T01:25:48.665Z,14.65
2022-09-02T01:28:51.238Z,14.55
2022-09-02T01:31:54.014Z,14.57
2022-09-02T01:34:57.894Z,14.62
2022-09-02T01:38:02.715Z,14.55
2022-09-02T01:41:05.479Z,14.53
2022-09-02T01:44:08.418Z,14.56
2022-09-02T01:47:11.251Z,14.58
2022-09-02T01:50:14.082Z,14.44
2022-09-02T01:53:18.873Z,14.50
2022-09-02T01:56:21.590Z,14.41
2022-09-02T01:59:24.168Z,14.33
2022-09-02T02:02:26.792Z,14.41
2022-09-02T02:05:30.665Z,14.34
2022-09-02T02:08:34.797Z,14.44
2022-09-02T02:11:37.429Z,14.32
2022-09-02T02:14:40.054Z,14.32
2022-09-02T02:17:42.713Z,14.38
2022-09-02T02:20:45.802Z,14.34
2022-09-02T02:23:50.216Z,14.30
2022-09-02T02:26:53.206Z,14.27
2022-09-02T02:29:55.825Z,14.11
2022-09-02T02:32:58.504Z,14.09
2022-09-02T02:36:01.107Z,14.10
2022-09-02T02:39:06.044Z,14.11
2022-09-02T02:42:09.354Z,14.12
2022-09-02T02:45:33.980Z,14.22
2022-09-02T02:48:37.238Z,14.11
2022-09-02T02:51:39.990Z,14.18
2022-09-02T02:54:44.009Z,14.18
2022-09-02T02:57:47.373Z,14.17
2022-09-02T03:00:51.207Z,14.16
2022-09-02T03:03:54.223Z,14.27
2022-09-02T03:06:56.809Z,14.16
2022-09-02T03:10:00.832Z,14.05
2022-09-02T03:13:04.100Z,13.93
2022-09-02T03:16:07.095Z,14.03
2022-09-02T03:19:09.861Z,14.00
2022-09-02T03:22:12.429Z,13.94
2022-09-02T03:25:20.155Z,13.89
2022-09-02T03:28:22.758Z,13.96
2022-09-02T03:31:27.615Z,13.88
2022-09-02T03:34:31.684Z,13.99
2022-09-02T03:37:35.034Z,13.73
2022-09-02T03:40:41.917Z,13.78
2022-09-02T03:43:44.693Z,13.89
2022-09-02T03:46:47.894Z,13.87
2022-09-02T03:49:50.719Z,13.91
2022-09-02T03:52:53.427Z,13.85
2022-09-02T03:55:57.407Z,13.70
2022-09-02T03:59:00.539Z,13.78
2022-09-02T04:02:03.986Z,13.87
2022-09-02T04:05:13.685Z,13.84
2022-09-02T04:08:18.879Z,13.83
2022-09-02T04:11:23.881Z,13.81
2022-09-02T04:14:27.528Z,13.76
2022-09-02T04:17:30.126Z,13.70
2022-09-02T04:20:32.723Z,13.65
2022-09-02T04:23:36.020Z,13.67
2022-09-02T04:26:45.130Z,13.71
2022-09-02T04:29:48.004Z,13.75
2022-09-02T04:32:50.691Z,13.75
2022-09-02T04:35:53.261Z,13.74
2022-09-02T04:38:56.583Z,13.73
2022-09-02T04:42:00.505Z,13.59
2022-09-02T04:45:03.150Z,13.68
2022-09-02T04:48:05.823Z,13.78
2022-09-02T04:51:11.374Z,13.74
2022-09-02T04:54:14.055Z,13.60
2022-09-02T04:57:18.082Z,13.72
2022-09-02T05:00:20.938Z,13.74
2022-09-02T05:03:24.650Z,13.68
2022-09-02T05:06:28.889Z,13.68
2022-09-02T05:09:33.116Z,13.68
2022-09-02T05:12:37.233Z,13.75
2022-09-02T05:15:43.397Z,13.64
2022-09-02T05:18:46.555Z,13.74
2022-09-02T05:21:49.379Z,13.87
2022-09-02T05:24:52.257Z,13.96
2022-09-02T05:27:56.177Z,14.05
2022-09-02T05:31:05.568Z,13.93
2022-09-02T05:34:08.668Z,14.04
2022-09-02T05:37:11.333Z,14.10
2022-09-02T05:40:14.938Z,14.12
2022-09-02T05:43:19.109Z,14.21
2022-09-02T05:46:24.356Z,14.29
2022-09-02T05:49:27.531Z,14.40
2022-09-02T05:52:31.169Z,14.37
2022-09-02T05:55:33.765Z,14.37
2022-09-02T05:58:37.727Z,14.44
2022-09-02T06:01:40.444Z,14.52
2022-09-02T06:04:46.446Z,14.60
2022-09-02T06:07:49.052Z,14.68
2022-09-02T06:10:52.076Z,14.68
2022-09-02T06:13:55.984Z,14.80
2022-09-02T06:16:59.196Z,14.90
2022-09-02T06:20:02.061Z,14.90
2022-09-02T06:23:05.025Z,15.01
2022-09-02T06:26:08.754Z,15.06
2022-09-02T06:29:13.418Z,15.02
2022-09-02T06:32:16.042Z,15.28
2022-09-02T06:35:18.808Z,15.45
2022-09-02T06:38:21.469Z,15.57
2022-09-02T06:41:28.308Z,15.75
2022-09-02T06:44:32.554Z,15.83
2022-09-02T06:47:35.538Z,15.86
2022-09-02T06:50:40.156Z,16.18
2022-09-02T06:53:42.725Z,16.37
2022-09-02T06:56:51.163Z,16.48
2022-09-02T07:00:01.812Z,16.58
2022-09-02T07:03:30.236Z,16.61
2022-09-02T07:06:37.573Z,16.69
2022-09-02T07:09:40.384Z,16.96
2022-09-02T07:12:44.377Z,16.96
2022-09-02T07:15:48.576Z,17.37
2022-09-02T07:18:51.213Z,17.35
2022-09-02T07:21:54.411Z,17.32
2022-09-02T07:24:57.170Z,17.65
2022-09-02T07:28:00.544Z,17.67
2022-09-02T07:31:08.879Z,17.95
2022-09-02T07:34:11.889Z,17.98
2022-09-02T07:37:14.546Z,18.18
2022-09-02T07:40:17.770Z,18.39
2022-09-02T07:43:22.378Z,18.53
2022-09-02T07:46:26.570Z,18.56
2022-09-02T07:50:14.434Z,18.78
2022-09-02T07:52:51.948Z,18.74
2022-09-02T07:55:54.593Z,18.92
2022-09-02T07:58:57.203Z,19.26
2022-09-02T08:02:01.253Z,19.40
2022-09-02T08:05:04.887Z,19.57
2022-09-02T08:08:08.904Z,19.74
2022-09-02T08:11:12.729Z,19.98
2022-09-02T08:14:19.699Z,20.04
2022-09-02T08:17:23.673Z,20.30
2022-09-02T08:20:27.631Z,20.33
2022-09-02T08:23:37.932Z,20.58
2022-09-02T08:26:40.797Z,20.78
2022-09-02T08:29:43.370Z,20.94
2022-09-02T08:32:47.315Z,21.15
2022-09-02T08:35:49.915Z,21.25
2022-09-02T08:38:52.485Z,21.59
2022-09-02T08:42:03.635Z,21.86
2022-09-02T08:45:13.312Z,21.93
2022-09-02T08:48:22.466Z,22.11
2022-09-02T08:51:37.396Z,22.78
2022-09-02T08:54:48.552Z,22.70
2022-09-02T08:57:51.236Z,22.90
2022-09-02T09:01:04.152Z,23.56
2022-09-02T09:04:20.082Z,23.55
2022-09-02T09:07:31.089Z,23.45
2022-09-02T09:10:40.753Z,23.62
2022-09-02T09:13:56.635Z,23.33
2022-09-02T09:17:01.529Z,23.77
2022-09-02T09:20:16.632Z,23.82
2022-09-02T09:23:34.177Z,23.91
2022-09-02T09:26:42.014Z,24.61
2022-09-02T09:29:45.068Z,24.43
2022-09-02T09:32:51.055Z,24.96
2022-09-02T09:35:56.551Z,25.30
2022-09-02T09:38:59.128Z,26.01
2022-09-02T09:42:03.177Z,25.86
2022-09-02T09:45:20.872Z,25.58
2022-09-02T09:48:27.835Z,25.35
2022-09-02T09:51:40.146Z,26.22
2022-09-02T09:55:15.088Z,26.38
2022-09-02T09:58:25.276Z,26.55
2022-09-02T10:01:31.198Z,26.72
2022-09-02T10:04:43.670Z,27.07
2022-09-02T10:07:55.723Z,27.41
2022-09-02T10:11:01.492Z,26.95
2022-09-02T10:14:06.812Z,27.40
2022-09-02T10:17:24.463Z,27.87
2022-09-02T10:20:44.562Z,27.11
2022-09-02T10:24:05.683Z,27.02
2022-09-02T10:27:10.238Z,27.07
2022-09-02T10:30:19.102Z,27.79
2022-09-02T10:33:31.116Z,27.95
2022-09-02T10:36:39.951Z,27.75
2022-09-02T10:40:05.442Z,28.07
2022-09-02T10:43:10.694Z,28.14
2022-09-02T10:46:18.836Z,28.98
2022-09-02T10:49:31.922Z,29.06
2022-09-02T10:52:50.619Z,29.05
2022-09-02T10:56:00.485Z,28.19
2022-09-02T10:59:09.112Z,27.45
2022-09-02T11:02:18.889Z,27.55
2022-09-02T11:05:25.976Z,27.77
2022-09-02T11:08:39.617Z,26.17
2022-09-02T11:11:51.307Z,26.72
2022-09-02T11:15:03.685Z,26.35
2022-09-02T11:18:15.707Z,25.21
2022-09-02T11:21:32.100Z,25.42
2022-09-02T11:24:43.271Z,26.14
2022-09-02T11:27:55.818Z,25.60
2022-09-02T11:31:06.663Z,24.90
2022-09-02T11:34:18.967Z,24.80
2022-09-02T11:37:31.390Z,25.24
2022-09-02T11:40:40.151Z,26.22
2022-09-02T11:43:48.702Z,26.15
2022-09-02T11:47:20.253Z,25.41
2022-09-02T11:50:42.054Z,26.94
2022-09-02T11:53:46.579Z,27.31
2022-09-02T11:56:56.806Z,25.97
2022-09-02T12:00:08.460Z,25.16
2022-09-02T12:03:39.139Z,24.48
2022-09-02T12:07:26.811Z,24.42
2022-09-02T12:11:02.065Z,24.10
2022-09-02T12:14:07.803Z,23.85
2022-09-02T12:17:12.069Z,25.61
2022-09-02T12:20:51.109Z,26.57
2022-09-02T12:24:21.296Z,26.35
2022-09-02T12:27:29.616Z,26.61
2022-09-02T12:31:12.691Z,25.38
2022-09-02T12:34:54.291Z,24.85
2022-09-02T12:37:58.473Z,24.27
2022-09-02T12:41:13.352Z,25.10
2022-09-02T12:44:31.327Z,26.55
2022-09-02T12:47:48.960Z,27.99
2022-09-02T12:50:55.417Z,28.53
2022-09-02T12:53:58.657Z,28.69
2022-09-02T12:57:03.312Z,29.25
2022-09-02T13:00:07.061Z,27.99
2022-09-02T13:03:30.294Z,28.08
2022-09-02T13:06:44.470Z,27.48
2022-09-02T13:10:08.963Z,28.49
2022-09-02T13:13:40.769Z,28.67
2022-09-02T13:16:53.405Z,27.89
2022-09-02T13:20:24.750Z,26.51
2022-09-02T13:24:00.306Z,26.76
2022-09-02T13:27:24.014Z,26.07
2022-09-02T13:30:38.363Z,26.69
2022-09-02T13:33:42.794Z,27.41
2022-09-02T13:36:47.531Z,26.74
2022-09-02T13:39:50.126Z,26.56
2022-09-02T13:42:54.590Z,26.49
2022-09-02T13:46:03.027Z,26.61
2022-09-02T13:49:05.646Z,26.46
2022-09-02T13:52:17.062Z,26.07
2022-09-02T13:55:20.770Z,26.38
2022-09-02T13:58:33.221Z,26.05
2022-09-02T14:01:39.788Z,25.98
2022-09-02T14:04:42.865Z,25.37
2022-09-02T14:07:49.030Z,24.63
2022-09-02T14:10:53.853Z,24.51
2022-09-02T14:13:57.889Z,24.64
2022-09-02T14:17:21.100Z,24.75
2022-09-02T14:20:24.589Z,24.92
2022-09-02T14:23:28.853Z,25.07
2022-09-02T14:26:36.247Z,25.01
2022-09-02T14:29:45.014Z,25.11
2022-09-02T14:32:48.990Z,24.85
2022-09-02T14:35:59.829Z,24.48
2022-09-02T14:39:14.997Z,24.39
2022-09-02T14:42:17.722Z,24.11
2022-09-02T14:45:28.104Z,24.27
2022-09-02T14:48:38.421Z,24.43
2022-09-02T14:51:46.231Z,24.23
2022-09-02T14:54:50.819Z,24.21
2022-09-02T14:58:02.288Z,24.19
2022-09-02T15:01:08.352Z,24.40
2022-09-02T15:04:12.416Z,24.22
2022-09-02T15:07:17.304Z,24.22
2022-09-02T15:10:19.907Z,24.36
2022-09-02T15:13:29.514Z,24.10
2022-09-02T15:16:33.179Z,24.03
2022-09-02T15:19:37.138Z,23.90
2022-09-02T15:22:39.832Z,23.80
2022-09-02T15:25:42.450Z,23.89
2022-09-02T15:28:45.466Z,23.91
2022-09-02T15:31:48.053Z,23.83
2022-09-02T15:34:52.156Z,23.80
2022-09-02T15:37:54.765Z,23.29
2022-09-02T15:40:57.456Z,23.27
2022-09-02T15:44:00.681Z,23.25
2022-09-02T15:47:03.846Z,23.20
2022-09-02T15:50:08.645Z,23.29
2022-09-02T15:53:11.211Z,23.40
2022-09-02T15:56:18.504Z,23.18
2022-09-02T15:59:22.115Z,22.97
2022-09-02T16:02:24.877Z,22.83
2022-09-02T16:05:30.579Z,22.88
2022-09-02T16:08:34.762Z,22.95
2022-09-02T16:11:39.008Z,22.85
2022-09-02T16:14:41.597Z,23.01
2022-09-02T16:17:44.531Z,22.98
2022-09-02T16:20:48.463Z,23.02
2022-09-02T16:23:51.115Z,23.07
2022-09-02T16:26:53.769Z,22.94
2022-09-02T16:29:56.339Z,22.59
2022-09-02T16:32:58.933Z,22.75
2022-09-02T16:36:02.871Z,22.79
2022-09-02T16:39:07.196Z,22.81
2022-09-02T16:42:10.853Z,22.69
2022-09-02T16:45:13.449Z,22.81
2022-09-02T16:48:16.053Z,22.76
2022-09-02T16:51:20.168Z,22.69
2022-09-02T16:54:31.437Z,22.59
2022-09-02T16:57:35.009Z,22.64
2022-09-02T17:00:39.065Z,22.47
2022-09-02T17:03:42.334Z,22.33
2022-09-02T17:06:46.474Z,22.26
2022-09-02T17:09:51.669Z,22.25
2022-09-02T17:12:55.029Z,22.28
2022-09-02T17:15:57.590Z,22.24
2022-09-02T17:19:02.339Z,22.03
2022-09-02T17:22:06.335Z,22.00
2022-09-02T17:25:09.670Z,21.95
2022-09-02T17:28:12.241Z,21.68
2022-09-02T17:31:17.246Z,21.83
2022-09-02T17:34:20.038Z,21.80
2022-09-02T17:37:23.993Z,21.68
2022-09-02T17:40:43.872Z,21.53
2022-09-02T17:43:46.476Z,21.41
2022-09-02T17:46:49.247Z,21.46
2022-09-02T17:49:52.510Z,21.36
2022-09-02T17:52:56.459Z,21.23
2022-09-02T17:56:05.808Z,21.21
2022-09-02T17:59:19.324Z,21.13
2022-09-02T18:02:41.504Z,21.00
2022-09-02T18:05:58.855Z,20.84
2022-09-02T18:09:07.158Z,20.85
2022-09-02T18:12:13.628Z,20.70
2022-09-02T18:15:19.382Z,20.60
2022-09-02T18:18:21.948Z,20.58
2022-09-02T18:21:28.674Z,20.53
2022-09-02T18:24:44.590Z,20.49
2022-09-02T18:27:55.599Z,20.38
2022-09-02T18:31:04.790Z,20.27
2022-09-02T18:34:21.004Z,20.22
2022-09-02T18:37:32.339Z,20.10
2022-09-02T18:40:44.196Z,20.09
2022-09-02T18:44:07.630Z,19.97
2022-09-02T18:47:17.805Z,19.93
2022-09-02T18:50:47.434Z,19.84
2022-09-02T18:53:54.163Z,19.80
2022-09-02T18:56:59.762Z,19.72
2022-09-02T19:00:05.392Z,19.63
2022-09-02T19:03:08.592Z,19.56
2022-09-02T19:06:18.586Z,19.56
2022-09-02T19:09:24.376Z,19.53
2022-09-02T19:12:33.620Z,19.49
2022-09-02T19:15:36.797Z,19.39
2022-09-02T19:18:39.476Z,19.47
2022-09-02T19:21:47.136Z,19.51
2022-09-02T19:24:57.049Z,19.48
2022-09-02T19:28:05.800Z,19.50
2022-09-02T19:31:14.559Z,19.47
2022-09-02T19:34:19.820Z,19.41
2022-09-02T19:37:23.595Z,19.46
2022-09-02T19:40:28.460Z,19.39
2022-09-02T19:43:32.403Z,19.41
2022-09-02T19:47:15.272Z,19.30
2022-09-02T19:49:59.234Z,19.35
2022-09-02T19:53:01.825Z,19.33
2022-09-02T19:56:06.475Z,19.22
2022-09-02T19:59:11.324Z,19.38
2022-09-02T20:02:15.558Z,19.29
2022-09-02T20:05:20.152Z,19.39
2022-09-02T20:08:30.886Z,19.44
2022-09-02T20:11:34.417Z,19.32
2022-09-02T20:14:41.026Z,19.42
2022-09-02T20:17:43.793Z,19.39
2022-09-02T20:20:48.286Z,19.39
2022-09-02T20:23:51.146Z,19.28
2022-09-02T20:27:02.362Z,19.27
2022-09-02T20:30:11.185Z,19.26
2022-09-02T20:33:17.512Z,19.23
2022-09-02T20:36:29.743Z,19.20
2022-09-02T20:39:44.738Z,19.23
2022-09-02T20:43:16.933Z,19.17
2022-09-02T20:46:35.424Z,19.17
2022-09-02T20:49:57.893Z,19.09
2022-09-02T20:53:16.662Z,19.04
2022-09-02T20:56:24.625Z,18.93
2022-09-02T20:59:41.194Z,18.91
2022-09-02T21:02:52.499Z,18.92
2022-09-02T21:06:02.247Z,18.81
2022-09-02T21:09:14.936Z,18.69
2022-09-02T21:12:25.231Z,18.72
2022-09-02T21:15:31.951Z,18.68
2022-09-02T21:18:42.581Z,18.68
2022-09-02T21:21:50.159Z,18.67
2022-09-02T21:24:58.453Z,18.44
2022-09-02T21:28:08.703Z,18.54
2022-09-02T21:31:17.883Z,18.63
2022-09-02T21:34:27.384Z,18.58
2022-09-02T21:37:33.352Z,18.55
2022-09-02T21:40:51.390Z,18.58
2022-09-02T21:43:59.965Z,18.42
2022-09-02T21:47:12.024Z,18.37
2022-09-02T21:50:23.863Z,18.60
2022-09-02T21:53:40.886Z,18.72
2022-09-02T21:56:55.324Z,18.76
2022-09-02T22:00:02.580Z,18.78
2022-09-02T22:03:16.261Z,18.67
2022-09-02T22:06:27.882Z,18.62
2022-09-02T22:09:33.570Z,18.61
2022-09-02T22:12:39.644Z,18.42
2022-09-02T22:15:58.084Z,18.48
2022-09-02T22:19:08.235Z,18.44
2022-09-02T22:22:18.008Z,18.37
2022-09-02T22:25:21.721Z,18.26
2022-09-02T22:28:32.273Z,18.16
2022-09-02T22:31:40.137Z,18.06
2022-09-02T22:34:50.421Z,17.97
2022-09-02T22:38:02.596Z,17.86
2022-09-02T22:41:15.968Z,17.85
2022-09-02T22:44:23.448Z,17.83
2022-09-02T22:47:43.814Z,17.81
2022-09-02T22:51:08.601Z,17.74
2022-09-02T22:54:12.531Z,17.78
2022-09-02T22:57:29.115Z,17.79
2022-09-02T23:00:39.791Z,17.73
2022-09-02T23:03:50.275Z,17.72
2022-09-02T23:06:55.037Z,17.70
2022-09-02T23:10:00.999Z,17.60
2022-09-02T23:13:14.023Z,17.43
2022-09-02T23:16:22.123Z,17.54
2022-09-02T23:19:36.027Z,17.54
2022-09-02T23:22:51.410Z,17.57
2022-09-02T23:26:09.989Z,17.50
2022-09-02T23:29:18.194Z,17.32
2022-09-02T23:32:50.891Z,17.40
2022-09-02T23:36:02.470Z,17.32
2022-09-02T23:39:19.198Z,17.24
2022-09-02T23:42:23.459Z,17.25
2022-09-02T23:45:28.357Z,17.21
2022-09-02T23:48:44.333Z,17.23
2022-09-02T23:51:57.729Z,17.18
2022-09-02T23:55:07.724Z,17.20
2022-09-02T23:58:27.845Z,17.22
